Time;durP1;ratioP1;P1;durP2;ratioP2;P2;SDS_P1;SDS_P2;PMS_P1;PMS_P2;Temp;Humidity;BMP_temperature;BMP_pressure;BME280_temperature;BME280_humidity;BME280_pressure;Samples;Min_cycle;Max_cycle;Signal;HPM_P1;HPM_P2
2022/06/03 00:01:34;;;;;;;8.80;7.87;;;;;;;16.98;77.51;99769.27;1722291;80;21320;-42
2022/06/03 00:04:38;;;;;;;14.73;8.38;;;;;;;16.92;77.63;99765.55;1779495;79;21515;-42
2022/06/03 00:07:18;;;;;;;7.78;6.80;;;;;;;16.81;77.77;99763.39;1788831;79;20952;-42
2022/06/03 00:10:08;;;;;;;8.35;7.08;;;;;;;16.79;77.98;99763.02;1759042;79;21119;-42
2022/06/03 00:13:21;;;;;;;9.10;7.65;;;;;;;16.85;77.90;99762.80;1779412;80;20980;-43
2022/06/03 00:16:14;;;;;;;11.90;8.10;;;;;;;16.88;77.72;99768.88;1789563;80;21178;-42
2022/06/03 00:19:11;;;;;;;8.28;7.47;;;;;;;16.84;77.73;99765.36;1781874;79;21549;-42
2022/06/03 00:22:08;;;;;;;10.95;7.17;;;;;;;16.80;77.69;99765.92;1788457;80;21019;-42
2022/06/03 00:25:16;;;;;;;11.93;7.90;;;;;;;16.85;77.60;99763.38;1786623;79;20933;-42
2022/06/03 00:28:20;;;;;;;9.15;7.75;;;;;;;16.86;77.46;99760.84;1765904;79;21036;-42
2022/06/03 00:31:10;;;;;;;8.68;7.65;;;;;;;16.80;77.49;99767.30;1778618;79;21222;-43
2022/06/03 00:34:07;;;;;;;9.53;7.20;;;;;;;16.75;77.52;99778.63;1784741;79;20957;-42
2022/06/03 00:37:04;;;;;;;10.93;7.72;;;;;;;16.76;77.50;99775.31;1771922;79;21048;-42
2022/06/03 00:39:55;;;;;;;10.15;8.30;;;;;;;16.73;77.54;99782.36;1707720;80;20963;-42
2022/06/03 00:43:08;;;;;;;9.33;7.60;;;;;;;16.63;77.79;99781.77;1763650;80;21226;-42
2022/06/03 00:46:09;;;;;;;13.60;7.40;;;;;;;16.59;77.96;99791.15;1770108;79;21138;-42
2022/06/03 00:49:00;;;;;;;;;;;;;;;16.55;78.27;99794.44;1780919;79;21003;-43
2022/06/03 00:51:39;;;;;;;10.43;8.03;;;;;;;16.51;78.40;99799.89;1785744;80;20191;-43
2022/06/03 00:54:27;;;;;;;10.00;7.72;;;;;;;16.36;79.08;99798.31;1749272;81;21043;-42
2022/06/03 00:57:18;;;;;;;10.23;7.42;;;;;;;16.31;79.12;99804.95;1756732;81;22170;-42
2022/06/03 01:00:09;;;;;;;10.63;8.03;;;;;;;16.29;79.26;99805.13;1686163;81;21160;-42
2022/06/03 01:03:13;;;;;;;10.20;7.80;;;;;;;16.25;79.52;99813.91;1757131;81;21016;-42
2022/06/03 01:06:17;;;;;;;10.13;7.83;;;;;;;16.23;79.56;99818.97;1756643;81;21040;-42
2022/06/03 01:09:13;;;;;;;9.25;6.83;;;;;;;16.23;79.46;99818.97;1722619;82;21113;-42
2022/06/03 01:12:19;;;;;;;8.08;7.00;;;;;;;16.19;79.37;99826.39;1714600;82;20976;-42
2022/06/03 01:15:19;;;;;;;8.53;7.42;;;;;;;16.18;79.29;99831.66;1712202;83;21241;-42
2022/06/03 01:18:08;;;;;;;9.55;7.37;;;;;;;16.09;79.43;99841.01;1696492;82;21048;-42
2022/06/03 01:21:14;;;;;;;7.97;6.80;;;;;;;16.05;79.45;99841.58;1696024;83;21059;-42
2022/06/03 01:24:17;;;;;;;11.45;6.78;;;;;;;16.03;79.30;99845.27;1709604;82;21017;-42
2022/06/03 01:27:05;;;;;;;10.68;7.37;;;;;;;16.02;79.31;99843.70;1667721;82;21031;-42
2022/06/03 01:29:58;;;;;;;9.70;7.25;;;;;;;15.95;79.21;99857.94;1701472;82;21237;-42
2022/06/03 01:32:40;;;;;;;7.47;6.78;;;;;;;15.93;79.18;99855.58;1715301;83;21227;-42
2022/06/03 01:35:27;;;;;;;9.78;6.97;;;;;;;15.90;79.15;99863.19;1727474;82;20999;-43
2022/06/03 01:38:06;;;;;;;11.10;7.80;;;;;;;15.88;79.14;99868.82;1730424;82;21007;-43
2022/06/03 01:40:51;;;;;;;8.50;6.65;;;;;;;15.81;79.04;99880.52;1724722;82;21063;-43
2022/06/03 01:43:45;;;;;;;7.22;5.80;;;;;;;15.79;79.16;99873.27;1716092;82;21329;-42
2022/06/03 01:46:33;;;;;;;11.33;6.60;;;;;;;15.80;79.02;99883.05;1744827;81;21077;-43
2022/06/03 01:49:27;;;;;;;7.72;6.30;;;;;;;15.80;78.92;99890.46;1746885;81;21104;-42
2022/06/03 01:52:22;;;;;;;8.35;6.22;;;;;;;15.77;79.00;99880.30;1728020;81;21410;-43
2022/06/03 01:55:35;;;;;;;6.80;5.40;;;;;;;15.71;78.75;99897.64;1737731;81;21048;-42
2022/06/03 01:58:13;;;;;;;6.72;5.47;;;;;;;15.63;78.71;99895.45;1749518;81;23155;-42
2022/06/03 02:00:44;;;;;;;7.05;6.28;;;;;;;15.57;78.57;99901.64;1738411;81;21044;-42
2022/06/03 02:03:37;;;;;;;7.53;5.97;;;;;;;15.53;78.36;99904.93;1758244;81;21543;-43
2022/06/03 02:06:59;;;;;;;7.10;5.45;;;;;;;15.45;78.44;99893.70;1752549;81;20957;-42
2022/06/03 02:10:18;;;;;;;5.83;5.33;;;;;;;15.38;78.42;99899.12;1697127;82;21087;-42
2022/06/03 02:13:09;;;;;;;8.55;5.42;;;;;;;15.36;78.51;99894.60;1671841;84;21929;-42
2022/06/03 02:16:29;;;;;;;6.12;5.03;;;;;;;15.36;78.35;99894.60;1715426;83;21516;-42
2022/06/03 02:19:11;;;;;;;7.87;5.55;;;;;;;15.40;78.35;99891.31;1717160;83;21050;-42
2022/06/03 02:22:00;;;;;;;8.30;6.25;;;;;;;15.43;78.21;99899.56;1725665;83;21125;-42
2022/06/03 02:25:02;;;;;;;7.85;5.85;;;;;;;15.46;78.03;99893.91;1719291;82;21149;-42
2022/06/03 02:27:47;;;;;;;5.75;5.15;;;;;;;15.45;77.83;99897.80;1704434;83;23182;-42
2022/06/03 02:30:55;;;;;;;6.53;5.10;;;;;;;15.43;77.77;99896.83;1705919;83;20993;-43
2022/06/03 02:33:30;;;;;;;13.25;5.28;;;;;;;15.45;77.79;99895.06;1706911;83;21599;-42
2022/06/03 02:36:33;;;;;;;8.40;5.55;;;;;;;15.43;77.67;99898.19;1714788;83;21062;-42
2022/06/03 02:39:46;;;;;;;7.12;4.40;;;;;;;15.44;77.54;99901.11;1718730;83;21097;-42
2022/06/03 02:42:30;;;;;;;5.37;4.60;;;;;;;15.46;77.14;99906.20;1722772;83;21254;-42
2022/06/03 02:45:15;;;;;;;9.00;5.05;;;;;;;15.45;77.13;99903.26;1698514;83;21612;-42
2022/06/03 02:48:03;;;;;;;10.88;4.90;;;;;;;15.47;76.93;99911.88;1722508;83;21052;-42
2022/06/03 02:51:27;;;;;;;5.33;4.83;;;;;;;15.43;76.67;99921.42;1715552;83;21368;-42
2022/06/03 02:54:21;;;;;;;7.08;4.70;;;;;;;15.37;76.58;99923.50;1726841;83;21544;-42
2022/06/03 02:57:31;;;;;;;5.42;4.58;;;;;;;15.35;76.90;99925.81;1679788;83;21287;-43
2022/06/03 03:00:10;;;;;;;9.40;4.65;;;;;;;15.38;76.95;99925.08;1725858;83;21114;-42
2022/06/03 03:03:30;;;;;;;5.83;4.40;;;;;;;15.36;76.56;99927.39;1706494;83;21026;-42
2022/06/03 03:06:22;;;;;;;6.35;3.80;;;;;;;15.31;76.45;99930.46;1699768;83;22171;-42
2022/06/03 03:09:30;;;;;;;5.87;3.55;;;;;;;15.25;76.30;99933.36;1720048;83;21239;-42
2022/06/03 03:12:08;;;;;;;5.58;3.75;;;;;;;15.21;76.35;99936.82;1676016;83;21275;-42
2022/06/03 03:14:59;;;;;;;6.17;4.20;;;;;;;15.22;76.26;99943.86;1698270;83;21520;-42
2022/06/03 03:18:03;;;;;;;6.20;3.75;;;;;;;15.23;76.36;99944.65;1698392;83;20967;-42
2022/06/03 03:20:46;;;;;;;9.53;4.08;;;;;;;15.19;76.36;99947.36;1706664;83;21556;-42
2022/06/03 03:23:47;;;;;;;3.83;3.50;;;;;;;15.20;76.63;99945.41;1701297;83;21907;-42
2022/06/03 03:26:34;;;;;;;3.83;3.40;;;;;;;15.30;76.54;99942.58;1716156;83;21182;-42
2022/06/03 03:29:40;;;;;;;4.85;3.87;;;;;;;15.25;76.09;99951.11;1717061;82;21043;-42
2022/06/03 03:32:38;;;;;;;4.25;3.40;;;;;;;15.18;76.00;99958.07;1709870;83;21086;-42
2022/06/03 03:35:34;;;;;;;5.87;3.52;;;;;;;15.12;76.02;99958.20;1691626;83;21591;-42
2022/06/03 03:38:15;;;;;;;4.35;2.92;;;;;;;15.14;76.25;99955.10;1715141;83;21746;-43
2022/06/03 03:41:06;;;;;;;5.22;3.30;;;;;;;15.19;75.73;99966.48;1698113;82;21200;-43
2022/06/03 03:43:48;;;;;;;3.27;2.98;;;;;;;15.18;75.65;99969.00;1674479;83;21141;-42
2022/06/03 03:47:11;;;;;;;3.62;2.77;;;;;;;15.15;75.08;99973.06;1720608;83;21036;-42
2022/06/03 03:50:12;;;;;;;4.03;2.52;;;;;;;15.12;75.18;99975.95;1718034;83;21097;-42
2022/06/03 03:53:29;;;;;;;6.90;3.12;;;;;;;15.12;75.38;99975.16;1705063;82;21038;-42
2022/06/03 03:56:26;;;;;;;7.33;2.77;;;;;;;15.15;75.27;99983.98;1716110;83;23197;-42
2022/06/03 03:59:32;;;;;;;5.97;3.20;;;;;;;15.13;75.25;99988.45;1699070;82;21883;-42
2022/06/03 04:02:47;;;;;;;2.95;2.70;;;;;;;15.12;75.30;99992.34;1714169;82;21069;-42
2022/06/03 04:05:32;;;;;;;3.25;2.50;;;;;;;15.15;75.09;99995.67;1705268;82;21061;-42
2022/06/03 04:08:28;;;;;;;3.62;2.50;;;;;;;15.19;75.04;100003.92;1712522;82;21057;-43
2022/06/03 04:11:29;;;;;;;3.50;2.30;;;;;;;15.20;74.11;100008.23;1715352;82;21254;-42
2022/06/03 04:14:28;;;;;;;3.90;2.30;;;;;;;15.15;74.32;100013.42;1716653;83;21453;-43
2022/06/03 04:17:35;;;;;;;3.00;2.62;;;;;;;15.17;74.71;100017.95;1655779;83;21117;-43
2022/06/03 04:20:38;;;;;;;2.75;2.20;;;;;;;15.20;74.88;100023.26;1714062;82;21105;-43
2022/06/03 04:23:20;;;;;;;2.83;2.52;;;;;;;15.26;74.63;100026.41;1706678;83;21113;-42
2022/06/03 04:26:05;;;;;;;6.20;2.25;;;;;;;15.33;74.06;100031.97;1716415;83;22124;-43
2022/06/03 04:28:58;;;;;;;6.42;2.50;;;;;;;15.32;73.66;100031.17;1726110;83;21096;-42
2022/06/03 04:32:00;;;;;;;3.12;2.40;;;;;;;15.33;73.15;100045.05;1724499;82;21047;-42
2022/06/03 04:34:45;;;;;;;2.70;2.33;;;;;;;15.39;72.51;100050.39;1716364;83;21912;-43
2022/06/03 04:37:49;;;;;;;2.60;2.22;;;;;;;15.48;73.06;100044.62;1727725;83;21184;-42
2022/06/03 04:41:05;;;;;;;2.83;2.35;;;;;;;15.53;72.99;100054.66;1711962;83;21188;-43
2022/06/03 04:44:30;;;;;;;2.40;2.20;;;;;;;15.53;72.16;100053.30;1709341;82;21097;-43
2022/06/03 04:47:29;;;;;;;3.35;1.87;;;;;;;15.53;72.23;100053.30;1719806;83;21050;-42
2022/06/03 04:50:29;;;;;;;5.50;2.70;;;;;;;15.63;72.00;100050.45;1710422;82;21042;-43
2022/06/03 04:53:35;;;;;;;3.05;2.08;;;;;;;15.71;71.69;100058.92;1705665;82;22236;-42
2022/06/03 04:56:22;;;;;;;2.33;1.90;;;;;;;15.69;71.25;100062.59;1711801;83;22051;-42
2022/06/03 04:59:01;;;;;;;2.98;1.90;;;;;;;15.68;71.83;100065.73;1727425;83;21046;-42
2022/06/03 05:02:12;;;;;;;2.20;2.00;;;;;;;15.76;71.12;100066.78;1653419;83;21002;-43
2022/06/03 05:05:06;;;;;;;3.80;1.98;;;;;;;15.83;70.47;100075.03;1724020;83;21391;-42
2022/06/03 05:08:00;;;;;;;2.08;1.85;;;;;;;15.79;69.57;100074.22;1711847;83;21160;-43
2022/06/03 05:11:07;;;;;;;4.35;1.90;;;;;;;15.78;70.14;100078.72;1680446;82;21252;-42
2022/06/03 05:14:04;;;;;;;2.90;1.77;;;;;;;15.79;69.92;100086.52;1698664;82;21114;-42
2022/06/03 05:17:15;;;;;;;6.25;1.85;;;;;;;15.60;69.94;100055.30;1710884;83;21058;-43
2022/06/03 05:19:48;;;;;;;2.50;1.90;;;;;;;15.94;69.50;100092.33;1716926;83;21023;-43
2022/06/03 05:22:38;;;;;;;4.30;2.10;;;;;;;15.91;68.12;100091.73;1725563;83;21053;-43
2022/06/03 05:25:17;;;;;;;2.65;1.90;;;;;;;15.88;68.10;100090.30;1725758;83;21242;-43
2022/06/03 05:28:26;;;;;;;2.50;1.92;;;;;;;15.87;68.51;100092.86;1713967;82;21120;-43
2022/06/03 05:31:49;;;;;;;2.57;1.53;;;;;;;15.94;68.88;100099.73;1709774;82;20955;-43
2022/06/03 05:34:41;;;;;;;3.25;1.82;;;;;;;16.05;67.68;100100.63;1711407;82;21053;-42
2022/06/03 05:37:25;;;;;;;1.95;1.70;;;;;;;16.09;67.51;100104.17;1661809;82;21326;-44
2022/06/03 05:40:31;;;;;;;2.10;1.90;;;;;;;16.11;67.26;100101.86;1711889;82;21095;-43
2022/06/03 05:43:17;;;;;;;2.22;1.90;;;;;;;16.18;67.14;100107.38;1716150;82;21105;-43
2022/06/03 05:46:01;;;;;;;2.50;1.95;;;;;;;16.27;67.25;100108.41;1717426;82;21041;-43
2022/06/03 05:48:56;;;;;;;3.80;1.80;;;;;;;16.34;66.61;100109.84;1712414;83;21066;-43
2022/06/03 05:51:53;;;;;;;2.08;1.70;;;;;;;16.45;66.01;100114.83;1700642;83;21029;-43
2022/06/03 05:54:52;;;;;;;2.52;1.50;;;;;;;16.53;66.52;100119.96;1698069;82;21233;-43
2022/06/03 05:57:36;;;;;;;3.17;1.80;;;;;;;16.65;66.84;100117.54;1710952;83;21038;-43
2022/06/03 06:00:43;;;;;;;2.35;2.00;;;;;;;16.74;64.71;100115.25;1726905;83;21096;-43
2022/06/03 06:03:36;;;;;;;2.90;1.60;;;;;;;16.77;65.76;100118.58;1710126;83;21601;-43
2022/06/03 06:06:36;;;;;;;4.85;1.75;;;;;;;16.90;65.12;100115.70;1712150;82;21172;-43
2022/06/03 06:09:43;;;;;;;2.67;1.83;;;;;;;17.01;64.55;100124.57;1709411;83;21312;-42
2022/06/03 06:12:32;;;;;;;4.37;1.82;;;;;;;17.09;64.22;100124.83;1713159;83;20976;-43
2022/06/03 06:15:32;;;;;;;3.67;2.12;;;;;;;17.19;63.78;100122.69;1724731;82;21701;-43
2022/06/03 06:18:24;;;;;;;2.62;1.70;;;;;;;17.27;62.17;100122.94;1716002;83;21041;-43
2022/06/03 06:21:29;;;;;;;2.42;1.77;;;;;;;17.33;61.39;100125.52;1725698;83;21061;-42
2022/06/03 06:24:23;;;;;;;3.83;1.98;;;;;;;17.39;60.74;100126.69;1720790;83;21971;-43
2022/06/03 06:27:14;;;;;;;2.00;1.80;;;;;;;17.38;59.73;100120.42;1697567;82;20976;-43
2022/06/03 06:30:00;;;;;;;;;;;;;;;17.37;60.74;100121.61;1699839;83;21035;-42
2022/06/03 06:32:50;;;;;;;2.37;1.60;;;;;;;17.44;60.49;100123.58;1707946;83;20544;-43
2022/06/03 06:35:39;;;;;;;;;;;;;;;17.45;60.84;100126.52;1668949;83;21087;-43
2022/06/03 06:38:33;;;;;;;2.83;2.00;;;;;;;17.52;59.76;100129.30;1707410;82;21118;-43
2022/06/03 06:41:43;;;;;;;2.00;1.60;;;;;;;17.50;60.10;100122.03;1701376;82;21522;-43
2022/06/03 06:44:35;;;;;;;2.65;2.00;;;;;;;17.57;59.41;100129.50;1715789;83;21068;-43
2022/06/03 06:47:18;;;;;;;5.65;1.60;;;;;;;17.66;59.93;100121.14;1700491;83;21028;-43
2022/06/03 06:49:51;;;;;;;3.67;1.80;;;;;;;17.81;59.84;100128.20;1725026;83;21092;-43
2022/06/03 06:52:44;;;;;;;1.95;1.70;;;;;;;17.98;58.91;100125.88;1716405;83;23146;-43
2022/06/03 06:55:41;;;;;;;3.60;1.80;;;;;;;18.07;58.71;100124.32;1711706;83;21839;-43
2022/06/03 06:58:24;;;;;;;3.87;2.10;;;;;;;18.20;58.11;100119.25;1723059;83;21080;-42
2022/06/03 07:00:52;;;;;;;2.40;1.75;;;;;;;18.27;56.58;100124.72;1707002;83;21026;-43
2022/06/03 07:03:53;;;;;;;2.37;1.90;;;;;;;18.33;55.68;100119.04;1714279;83;21057;-43
2022/06/03 07:06:46;;;;;;;2.83;1.82;;;;;;;18.40;56.23;100121.77;1684727;83;21282;-43
2022/06/03 07:09:50;;;;;;;2.12;1.90;;;;;;;18.48;55.92;100124.72;1722634;83;21040;-42
2022/06/03 07:12:27;;;;;;;3.40;1.70;;;;;;;18.56;55.78;100128.26;1716605;82;21100;-42
2022/06/03 07:15:09;;;;;;;2.77;1.72;;;;;;;18.65;54.48;100128.63;1712330;83;20946;-43
2022/06/03 07:21:18;;;;;;;4.42;2.17;;;;;;;18.82;54.85;100130.58;1701044;82;21250;-43
2022/06/03 07:23:51;;;;;;;5.12;1.70;;;;;;;18.92;55.52;100122.91;1697135;83;20964;-43
2022/06/03 07:26:37;;;;;;;1.82;1.50;;;;;;;19.07;54.96;100123.03;1708655;82;21199;-43
2022/06/03 07:29:22;;;;;;;2.62;2.00;;;;;;;19.22;54.05;100125.13;1720330;83;21535;-42
2022/06/03 07:32:12;;;;;;;1.70;1.47;;;;;;;19.30;54.06;100118.44;1725069;82;21099;-42
2022/06/03 07:34:52;;;;;;;1.72;1.40;;;;;;;19.38;53.17;100130.18;1720017;83;21217;-43
2022/06/03 07:37:40;;;;;;;3.10;1.40;;;;;;;19.48;52.39;100125.25;1725019;83;21665;-44
2022/06/03 07:40:31;;;;;;;2.05;1.52;;;;;;;19.58;51.59;100125.00;1726062;83;21964;-43
2022/06/03 07:43:12;;;;;;;7.85;1.75;;;;;;;19.67;53.03;100122.59;1714311;82;21150;-43
2022/06/03 07:45:58;;;;;;;2.25;1.60;;;;;;;19.81;51.79;100132.13;1704419;83;21017;-42
2022/06/03 07:48:28;;;;;;;1.87;1.60;;;;;;;19.92;50.99;100120.47;1722988;83;21229;-42
2022/06/03 07:51:26;;;;;;;3.40;1.70;;;;;;;20.06;51.52;100123.70;1699896;83;21073;-43
2022/06/03 07:54:06;;;;;;;5.10;1.82;;;;;;;20.17;51.21;100112.81;1619887;88;21129;-44
2022/06/03 07:56:37;;;;;;;2.85;1.55;;;;;;;20.26;51.88;100111.75;1697295;82;21052;-43
2022/06/03 07:59:09;;;;;;;1.77;1.67;;;;;;;20.42;52.30;100118.14;1717244;82;21126;-43
2022/06/03 08:01:39;;;;;;;1.87;1.37;;;;;;;20.56;52.10;100117.22;1719866;83;21113;-43
2022/06/03 08:04:06;;;;;;;1.50;1.40;;;;;;;20.66;51.87;100112.99;1721082;83;21040;-43
2022/06/03 08:12:13;;;;;;;1.77;1.67;;;;;;;20.92;49.06;100128.64;1724661;83;21526;-43
2022/06/03 08:14:42;;;;;;;7.70;1.70;;;;;;;20.94;50.36;100129.81;1713025;82;21258;-43
2022/06/03 08:17:10;;;;;;;3.20;1.80;;;;;;;21.04;48.93;100128.13;1721887;83;21557;-43
2022/06/03 08:19:38;;;;;;;2.10;1.65;;;;;;;21.14;49.56;100130.02;1710828;82;21098;-43
2022/06/03 08:22:08;;;;;;;2.15;1.50;;;;;;;21.28;49.14;100132.60;1712807;82;21059;-43
2022/06/03 08:24:36;;;;;;;3.27;1.47;;;;;;;21.45;49.53;100130.80;1726863;82;21016;-43
2022/06/03 08:27:10;;;;;;;2.58;1.25;;;;;;;21.60;48.51;100130.20;1726337;82;21244;-43
2022/06/03 08:29:42;;;;;;;4.20;1.45;;;;;;;21.75;48.39;100130.00;1724980;82;20937;-43
2022/06/03 08:32:16;;;;;;;2.10;1.40;;;;;;;21.87;47.91;100123.92;1726929;82;21503;-42
2022/06/03 08:34:50;;;;;;;3.75;1.42;;;;;;;21.98;46.10;100123.17;1726036;82;21576;-43
2022/06/03 08:37:24;;;;;;;5.00;1.20;;;;;;;22.06;45.52;100124.64;1725279;83;21005;-43
2022/06/03 08:39:54;;;;;;;1.77;1.00;;;;;;;22.13;43.38;100131.41;1726271;82;21193;-43
2022/06/03 08:42:39;;;;;;;;;;;;;;;22.20;42.02;100134.08;1728765;83;21000;-43
2022/06/03 08:45:35;;;;;;;1.87;1.10;;;;;;;22.23;42.24;100130.47;1726693;82;20181;-43
2022/06/03 08:48:16;;;;;;;1.27;1.10;;;;;;;22.17;42.08;100128.62;1719513;82;20989;-43
2022/06/03 08:50:57;;;;;;;1.47;0.98;;;;;;;22.17;41.61;100132.16;1727076;83;21094;-43
2022/06/03 08:53:41;;;;;;;2.15;1.20;;;;;;;22.20;41.73;100144.34;1724247;82;21222;-43
2022/06/03 08:56:22;;;;;;;1.27;0.90;;;;;;;22.20;40.79;100142.36;1726706;82;21230;-43
2022/06/03 08:59:01;;;;;;;1.62;1.00;;;;;;;22.21;42.12;100140.39;1727027;83;21142;-43
2022/06/03 09:01:43;;;;;;;1.67;1.05;;;;;;;22.31;43.15;100139.44;1724720;82;20960;-44
2022/06/03 09:04:22;;;;;;;2.25;1.12;;;;;;;22.46;41.80;100150.44;1725536;82;21112;-45
2022/06/03 09:07:16;;;;;;;1.55;0.93;;;;;;;22.55;41.06;100142.37;1720447;82;23160;-43
2022/06/03 09:09:51;;;;;;;1.40;1.00;;;;;;;22.59;41.78;100140.33;1726863;82;21482;-43
2022/06/03 09:12:40;;;;;;;1.15;1.02;;;;;;;22.69;41.62;100157.33;1726178;82;21075;-43
2022/06/03 09:15:15;;;;;;;1.72;0.80;;;;;;;22.78;41.49;100149.29;1726048;82;21479;-44
2022/06/03 09:18:17;;;;;;;1.35;1.10;;;;;;;22.91;40.09;100148.05;1728009;82;21501;-43
2022/06/03 09:20:52;;;;;;;1.65;1.00;;;;;;;23.00;40.22;100148.87;1726464;82;21995;-43
2022/06/03 09:23:20;;;;;;;1.40;1.00;;;;;;;23.05;39.51;100149.77;1725869;82;22254;-43
2022/06/03 09:25:51;;;;;;;1.87;0.90;;;;;;;23.06;38.66;100141.05;1727063;82;20901;-43
2022/06/03 09:28:23;;;;;;;1.25;0.90;;;;;;;23.07;39.52;100141.23;1726836;83;21162;-43
2022/06/03 09:30:50;;;;;;;1.40;1.05;;;;;;;23.14;38.41;100145.23;1725184;82;21040;-43
2022/06/03 09:33:20;;;;;;;2.83;0.90;;;;;;;23.15;38.47;100150.16;1725858;82;22037;-43
2022/06/03 09:35:51;;;;;;;4.35;1.32;;;;;;;23.17;39.17;100144.99;1726711;82;22068;-43
2022/06/03 09:38:21;;;;;;;1.35;1.07;;;;;;;23.21;40.18;100142.94;1727936;82;20971;-43
2022/06/03 09:40:48;;;;;;;2.30;1.02;;;;;;;23.29;39.36;100145.72;1726895;82;21091;-43
2022/06/03 09:43:37;;;;;;;1.65;0.88;;;;;;;23.33;39.31;100140.92;1726706;82;21692;-43
2022/06/03 09:46:05;;;;;;;3.15;1.17;;;;;;;23.39;37.71;100143.34;1725764;82;21244;-43
2022/06/03 09:48:36;;;;;;;1.35;0.85;;;;;;;23.47;36.90;100146.79;1724281;82;21095;-43
2022/06/03 09:51:55;;;;;;;2.17;1.00;;;;;;;23.48;36.69;100153.89;1725591;82;21841;-43
2022/06/03 09:53:52;;;;;;;1.55;0.93;;;;;;;23.46;37.72;100162.61;1715940;82;21035;-43
2022/06/03 09:56:30;;;;;;;3.77;0.90;;;;;;;23.48;36.59;100157.41;1725447;82;20976;-43
2022/06/03 09:59:01;;;;;;;2.62;0.98;;;;;;;23.51;36.97;100166.86;1726796;82;21396;-43
2022/06/03 10:01:28;;;;;;;1.50;0.95;;;;;;;23.56;37.18;100162.99;1727607;82;21901;-43
2022/06/03 10:04:02;;;;;;;1.10;0.88;;;;;;;23.63;36.97;100162.82;1725482;82;20996;-44
2022/06/03 10:06:47;;;;;;;1.55;0.90;;;;;;;23.72;36.18;100156.73;1726812;83;21008;-43
2022/06/03 10:17:44;;;;;;;1.20;0.95;;;;;;;24.11;36.00;100159.36;1705679;82;21043;-43
2022/06/03 10:20:12;;;;;;;1.07;0.98;;;;;;;24.23;36.64;100163.47;1725862;82;20968;-43
2022/06/03 10:22:40;;;;;;;1.87;1.10;;;;;;;24.34;35.74;100160.45;1727414;83;21035;-42
2022/06/03 10:25:08;;;;;;;1.50;1.05;;;;;;;24.45;35.98;100161.73;1725705;83;23163;-43
2022/06/03 10:27:35;;;;;;;1.42;1.10;;;;;;;24.57;35.78;100159.66;1701785;83;21138;-43
2022/06/03 10:30:05;;;;;;;4.10;1.00;;;;;;;24.66;36.00;100158.42;1725965;83;21522;-43
2022/06/03 10:32:33;;;;;;;2.77;0.98;;;;;;;24.84;35.39;100167.66;1726870;82;21025;-44
2022/06/03 10:35:16;;;;;;;1.67;1.00;;;;;;;25.01;33.98;100151.79;1726779;82;21072;-43
2022/06/03 10:37:59;;;;;;;2.40;1.00;;;;;;;25.16;34.43;100153.56;1725363;83;23210;-43
2022/06/03 10:40:28;;;;;;;1.22;0.90;;;;;;;25.29;33.77;100150.98;1726867;82;21028;-43
2022/06/03 10:42:57;;;;;;;2.37;1.20;;;;;;;25.37;33.01;100159.88;1726711;82;21093;-43
2022/06/03 10:45:36;;;;;;;1.85;1.00;;;;;;;25.45;33.61;100153.70;1726766;82;21075;-44
2022/06/03 10:48:25;;;;;;;5.62;1.20;;;;;;;25.49;33.23;100151.59;1726168;83;21031;-43
2022/06/03 10:50:54;;;;;;;0.98;0.90;;;;;;;25.49;33.43;100147.42;1717217;82;21821;-43
2022/06/03 11:02:50;;;;;;;1.42;1.00;;;;;;;26.35;32.92;100149.75;1745978;82;21010;-43
2022/06/03 11:05:31;;;;;;;1.02;0.90;;;;;;;26.50;31.16;100145.88;1746171;82;21118;-43
2022/06/03 11:08:05;;;;;;;1.10;1.00;;;;;;;26.48;31.29;100142.79;1746176;82;21508;-43
2022/06/03 11:10:47;;;;;;;1.25;0.90;;;;;;;26.55;31.49;100139.14;1745969;82;20979;-42
2022/06/03 11:13:28;;;;;;;1.75;0.88;;;;;;;26.62;30.86;100136.74;1746232;82;21021;-43
2022/06/03 11:15:55;;;;;;;3.05;1.00;;;;;;;26.79;30.37;100139.51;1746014;82;21494;-43
2022/06/03 11:18:29;;;;;;;2.25;1.10;;;;;;;26.98;31.40;100137.06;1745964;82;21118;-43
2022/06/03 11:20:57;;;;;;;1.25;1.10;;;;;;;27.16;31.11;100142.75;1745823;82;21022;-43
2022/06/03 11:23:29;;;;;;;2.70;1.10;;;;;;;27.32;29.01;100141.78;1745979;82;21015;-43
2022/06/03 11:25:57;;;;;;;1.30;1.20;;;;;;;27.44;29.67;100139.55;1744688;82;21038;-43
2022/06/03 11:28:29;;;;;;;9.00;2.65;;;;;;;27.58;29.76;100138.25;1746282;82;21022;-43
2022/06/03 11:31:17;;;;;;;2.60;1.15;;;;;;;27.83;30.32;100137.29;1745933;82;21210;-43
2022/06/03 11:34:18;;;;;;;4.45;1.80;;;;;;;28.07;29.69;100134.91;1716208;82;20975;-43
2022/06/03 11:36:58;;;;;;;2.67;1.30;;;;;;;28.27;29.49;100137.92;1745971;82;21022;-43
2022/06/03 11:39:55;;;;;;;2.08;1.10;;;;;;;28.55;29.02;100135.34;1746284;82;21545;-43
2022/06/03 11:42:47;;;;;;;2.08;1.12;;;;;;;28.84;28.23;100135.69;1746045;82;21549;-43
2022/06/03 11:45:21;;;;;;;1.22;1.10;;;;;;;29.05;28.33;100132.55;1745905;82;21199;-43
2022/06/03 11:48:00;;;;;;;1.52;1.12;;;;;;;29.07;27.41;100132.09;1745789;82;20978;-43
2022/06/03 11:50:28;;;;;;;1.25;1.00;;;;;;;28.90;28.26;100125.43;1746068;82;21090;-43
2022/06/03 11:52:57;;;;;;;1.50;1.27;;;;;;;28.67;28.71;100128.82;1746243;82;20978;-43
2022/06/03 11:55:26;;;;;;;1.30;1.10;;;;;;;28.51;28.98;100118.72;1746292;82;20975;-43
2022/06/03 11:58:17;;;;;;;2.15;1.20;;;;;;;28.49;30.45;100112.07;1746197;81;21133;-43
2022/06/03 12:00:59;;;;;;;1.87;1.20;;;;;;;28.47;30.25;100117.33;1643450;87;21052;-43
2022/06/03 12:03:51;;;;;;;2.95;1.15;;;;;;;28.42;29.51;100108.95;1729755;81;21018;-43
2022/06/03 12:06:34;;;;;;;2.05;1.32;;;;;;;28.27;29.86;100108.00;1754819;81;21318;-43
2022/06/03 12:09:23;;;;;;;1.70;1.15;;;;;;;28.25;30.74;100104.92;1754142;81;21044;-43
2022/06/03 12:15:56;;;;;;;4.17;1.30;;;;;;;28.85;29.57;100094.59;1754076;81;21066;-43
2022/06/03 12:18:38;;;;;;;2.27;1.22;;;;;;;29.12;28.96;100100.75;1754150;81;21019;-43
2022/06/03 12:21:14;;;;;;;1.90;1.10;;;;;;;29.54;28.54;100089.64;1753964;81;21533;-43
2022/06/03 12:23:51;;;;;;;3.90;1.10;;;;;;;30.03;28.25;100087.27;1754049;81;21050;-43
2022/06/03 12:26:29;;;;;;;5.22;1.22;;;;;;;30.29;28.31;100081.98;1754409;81;21453;-43
2022/06/03 12:29:12;;;;;;;1.60;1.20;;;;;;;30.46;28.73;100090.73;1753959;81;21018;-43
2022/06/03 12:31:44;;;;;;;3.12;1.10;;;;;;;30.73;27.28;100084.15;1754235;81;21041;-43
2022/06/03 12:34:24;;;;;;;2.12;1.20;;;;;;;30.85;26.67;100088.69;1754085;81;20943;-43
2022/06/03 12:37:01;;;;;;;2.17;1.17;;;;;;;30.87;27.78;100082.77;1753932;81;21078;-44
2022/06/03 12:39:38;;;;;;;1.47;1.10;;;;;;;31.06;27.42;100083.39;1753951;81;21202;-44
2022/06/03 12:42:14;;;;;;;2.45;1.00;;;;;;;31.20;25.77;100084.02;1725581;81;21042;-44
2022/06/03 12:44:46;;;;;;;2.37;1.25;;;;;;;30.90;25.97;100083.20;1749908;81;20986;-43
2022/06/03 12:47:31;;;;;;;1.92;1.22;;;;;;;30.68;26.79;100084.81;1754109;81;20943;-44
2022/06/03 12:50:09;;;;;;;1.10;0.93;;;;;;;30.76;27.10;100080.38;1753874;81;21046;-43
2022/06/03 12:52:41;;;;;;;1.37;1.10;;;;;;;30.91;26.78;100076.35;1753874;81;20970;-43
2022/06/03 12:55:32;;;;;;;5.12;1.45;;;;;;;31.20;27.00;100070.02;1753742;81;21624;-44
2022/06/03 12:58:47;;;;;;;2.08;0.93;;;;;;;31.37;25.94;100073.10;1637204;86;21053;-44
2022/06/03 13:01:42;;;;;;;3.33;1.15;;;;;;;31.25;25.08;100068.56;1632111;87;21581;-44
2022/06/03 13:04:41;;;;;;;1.07;0.98;;;;;;;31.06;26.20;100072.19;1718689;82;21071;-44
2022/06/03 13:07:15;;;;;;;1.45;1.15;;;;;;;31.19;26.56;100069.86;1727589;83;21806;-43
2022/06/03 13:09:55;;;;;;;2.33;1.10;;;;;;;31.28;26.47;100062.75;1727297;83;21456;-43
2022/06/03 13:12:34;;;;;;;1.95;1.37;;;;;;;31.01;27.17;100060.23;1727511;83;20982;-43
2022/06/03 13:15:25;;;;;;;1.00;0.90;;;;;;;30.61;27.29;100073.35;1727738;82;20970;-43
2022/06/03 13:20:51;;;;;;;1.30;1.20;;;;;;;30.16;28.32;100068.87;1727489;83;21143;-43
2022/06/03 13:23:45;;;;;;;1.22;1.10;;;;;;;30.03;27.96;100069.09;1724410;83;21568;-43
2022/06/03 13:26:27;;;;;;;2.05;1.35;;;;;;;29.84;27.75;100067.62;1727601;83;21035;-43
2022/06/03 13:29:06;;;;;;;2.45;1.17;;;;;;;29.35;28.29;100066.59;1727536;83;21540;-43
2022/06/03 13:31:52;;;;;;;1.65;1.20;;;;;;;28.84;29.24;100071.50;1727441;82;21002;-43
2022/06/03 13:34:40;;;;;;;2.20;1.22;;;;;;;28.42;30.11;100074.70;1727672;82;21138;-43
2022/06/03 13:37:46;;;;;;;1.87;1.10;;;;;;;28.28;30.19;100075.31;1727444;83;20975;-43